Time;durP1;ratioP1;P1;durP2;ratioP2;P2;SDS_P1;SDS_P2;PMS_P1;PMS_P2;Temp;Humidity;BMP_temperature;BMP_pressure;BME280_temperature;BME280_humidity;BME280_pressure;Samples;Min_cycle;Max_cycle;Signal;HPM_P1;HPM_P2
2023/04/03 00:00:39;;;;;;;4.47;1.98;;;5.50;80.10;;;;;;5018094;28;20433;-72
2023/04/03 00:03:06;;;;;;;3.25;1.77;;;5.50;80.20;;;;;;5018454;28;20500;-71
2023/04/03 00:05:34;;;;;;;4.38;2.13;;;5.40;80.10;;;;;;5019489;28;20053;-71
2023/04/03 00:08:01;;;;;;;4.28;2.28;;;5.40;80.20;;;;;;5015091;28;20057;-71
2023/04/03 00:10:28;;;;;;;3.47;1.88;;;5.40;80.30;;;;;;5017715;28;20141;-70
2023/04/03 00:12:57;;;;;;;2.88;1.70;;;5.40;80.30;;;;;;5015918;28;20054;-71
2023/04/03 00:15:24;;;;;;;5.43;2.13;;;5.50;80.40;;;;;;5002414;28;20045;-72
2023/04/03 00:17:51;;;;;;;4.88;1.90;;;5.50;80.10;;;;;;5016987;28;20711;-72
2023/04/03 00:20:18;;;;;;;4.28;2.00;;;5.40;80.20;;;;;;5017561;28;20057;-70
2023/04/03 00:22:45;;;;;;;3.88;2.08;;;5.40;80.60;;;;;;5014988;28;20053;-71
2023/04/03 00:25:12;;;;;;;3.83;1.80;;;5.40;81.00;;;;;;5018993;28;20520;-71
2023/04/03 00:27:40;;;;;;;5.28;2.50;;;5.40;80.90;;;;;;5016489;28;20052;-69
2023/04/03 00:30:12;;;;;;;3.63;1.77;;;5.40;80.50;;;;;;5019162;28;20053;-69
2023/04/03 00:32:39;;;;;;;4.97;1.95;;;5.40;80.50;;;;;;5016043;28;20042;-70
2023/04/03 00:35:07;;;;;;;3.83;2.00;;;5.40;80.50;;;;;;5017655;28;20060;-71
2023/04/03 00:37:34;;;;;;;4.35;1.77;;;5.40;80.60;;;;;;5015184;28;20136;-71
2023/04/03 00:40:02;;;;;;;6.95;2.05;;;5.40;80.60;;;;;;4998900;28;20131;-69
2023/04/03 00:42:29;;;;;;;5.75;2.42;;;5.40;80.60;;;;;;5012800;28;20061;-70
2023/04/03 00:45:35;;;;;;;4.78;2.00;;;5.40;80.30;;;;;;5015242;28;20253;-71
2023/04/03 00:48:06;;;;;;;4.72;2.17;;;5.40;80.40;;;;;;4921741;29;20056;-72
2023/04/03 00:50:36;;;;;;;5.03;1.92;;;5.50;80.20;;;;;;4940961;28;20058;-70
2023/04/03 00:53:04;;;;;;;4.97;2.05;;;5.50;80.20;;;;;;4980089;28;20057;-71
2023/04/03 00:55:31;;;;;;;4.93;2.10;;;5.50;80.10;;;;;;4993218;28;20042;-70
2023/04/03 00:58:00;;;;;;;4.20;1.90;;;5.50;80.10;;;;;;5010167;28;20053;-71
2023/04/03 01:00:27;;;;;;;6.22;2.33;;;5.40;80.20;;;;;;5005333;28;20037;-70
2023/04/03 01:02:55;;;;;;;4.55;2.00;;;5.50;80.20;;;;;;4993379;28;20129;-70
2023/04/03 01:05:23;;;;;;;4.20;1.92;;;5.40;80.50;;;;;;5029579;28;20053;-70
2023/04/03 01:07:52;;;;;;;4.80;2.03;;;5.40;80.50;;;;;;5029496;28;20079;-69
2023/04/03 01:10:20;;;;;;;5.88;1.92;;;5.50;80.50;;;;;;5031797;28;20148;-72
2023/04/03 01:12:50;;;;;;;3.78;2.03;;;5.40;80.40;;;;;;5027722;28;20072;-71
2023/04/03 01:15:20;;;;;;;4.88;2.22;;;5.40;80.20;;;;;;5017790;28;20057;-71
2023/04/03 01:17:49;;;;;;;5.43;2.53;;;5.40;80.30;;;;;;5025225;28;20050;-70
2023/04/03 01:20:44;;;;;;;6.28;2.00;;;5.50;80.40;;;;;;5016729;28;20106;-71
2023/04/03 01:23:28;;;;;;;3.28;1.98;;;5.40;80.40;;;;;;5031731;28;20061;-72
2023/04/03 01:25:56;;;;;;;3.75;2.00;;;5.50;80.20;;;;;;5012671;28;20053;-70
2023/04/03 01:28:26;;;;;;;4.65;2.50;;;5.50;80.10;;;;;;5016672;28;20049;-71
2023/04/03 01:31:24;;;;;;;6.40;2.17;;;5.40;80.10;;;;;;5015352;28;20446;-71
2023/04/03 01:33:53;;;;;;;3.92;1.70;;;5.40;80.50;;;;;;5015181;28;20426;-72
2023/04/03 01:36:22;;;;;;;4.82;1.73;;;5.40;80.30;;;;;;5018185;28;20140;-71
2023/04/03 01:38:49;;;;;;;4.53;1.90;;;5.40;80.40;;;;;;5034555;28;20077;-70
2023/04/03 01:41:16;;;;;;;4.28;1.90;;;5.50;80.30;;;;;;5011792;28;20041;-71
2023/04/03 01:43:44;;;;;;;3.95;2.03;;;5.50;80.10;;;;;;5014362;28;20184;-71
2023/04/03 01:46:11;;;;;;;4.30;2.17;;;5.50;80.20;;;;;;5029647;28;20072;-72
2023/04/03 01:48:39;;;;;;;4.45;2.05;;;5.50;80.10;;;;;;4998682;28;20054;-71
2023/04/03 01:51:07;;;;;;;5.20;2.08;;;5.40;80.00;;;;;;5028507;28;20515;-71
2023/04/03 01:53:34;;;;;;;4.28;1.90;;;5.50;79.90;;;;;;5030129;28;20488;-71
2023/04/03 01:56:01;;;;;;;5.55;2.20;;;5.50;79.60;;;;;;5032587;28;20064;-71
2023/04/03 01:58:29;;;;;;;4.03;1.60;;;5.50;79.60;;;;;;5018628;28;20574;-70
2023/04/03 02:00:56;;;;;;;3.63;1.40;;;5.50;79.40;;;;;;5030378;28;20057;-71
2023/04/03 02:03:23;;;;;;;4.18;1.48;;;5.50;79.40;;;;;;5028861;28;20559;-71
2023/04/03 02:05:50;;;;;;;5.13;1.70;;;5.50;79.30;;;;;;5027512;28;20171;-69
2023/04/03 02:08:19;;;;;;;2.80;1.35;;;5.60;79.00;;;;;;5027975;28;20055;-72
2023/04/03 02:10:48;;;;;;;5.75;1.50;;;5.50;78.70;;;;;;5032004;28;20041;-70
2023/04/03 02:13:15;;;;;;;4.40;1.25;;;5.50;77.90;;;;;;5031758;28;20052;-71
2023/04/03 02:15:43;;;;;;;2.33;1.08;;;5.40;77.60;;;;;;5009711;28;20049;-72
2023/04/03 02:18:10;;;;;;;3.35;1.05;;;5.40;77.50;;;;;;5030060;28;20155;-71
2023/04/03 02:20:37;;;;;;;3.17;0.93;;;5.40;77.40;;;;;;5013374;28;20420;-71
2023/04/03 02:23:06;;;;;;;4.80;1.23;;;5.40;76.60;;;;;;5017702;28;20492;-69
2023/04/03 02:25:34;;;;;;;3.67;1.05;;;5.40;76.40;;;;;;5031852;28;20053;-71
2023/04/03 02:28:01;;;;;;;5.25;1.33;;;5.40;76.00;;;;;;5028578;28;20046;-70
2023/04/03 02:30:28;;;;;;;6.50;1.00;;;5.30;75.70;;;;;;5031935;28;20053;-71
2023/04/03 02:32:55;;;;;;;6.15;1.00;;;5.40;75.80;;;;;;5026916;28;20051;-70
2023/04/03 02:35:22;;;;;;;4.32;1.08;;;5.40;75.40;;;;;;5029304;28;20053;-72
2023/04/03 02:37:50;;;;;;;4.60;1.30;;;5.40;75.10;;;;;;5011776;28;20057;-71
2023/04/03 02:40:17;;;;;;;4.38;1.40;;;5.40;75.00;;;;;;5026489;28;20148;-70
2023/04/03 02:42:46;;;;;;;4.55;1.30;;;5.30;75.20;;;;;;5031740;28;20048;-69
2023/04/03 02:45:12;;;;;;;4.40;1.00;;;5.30;75.20;;;;;;5014608;28;20056;-71
2023/04/03 02:47:39;;;;;;;4.25;1.02;;;5.30;75.00;;;;;;5010999;28;20081;-71
2023/04/03 02:50:07;;;;;;;3.83;1.48;;;5.30;75.00;;;;;;5016651;28;20048;-72
2023/04/03 02:52:35;;;;;;;5.35;1.10;;;5.30;74.80;;;;;;5028157;28;20065;-72
2023/04/03 02:55:03;;;;;;;5.72;1.02;;;5.30;74.90;;;;;;5013373;28;20045;-72
2023/04/03 02:57:30;;;;;;;3.78;1.08;;;5.30;74.90;;;;;;5033217;28;20060;-71
2023/04/03 02:59:58;;;;;;;3.40;1.15;;;5.30;74.70;;;;;;5013441;28;20060;-71
2023/04/03 03:02:25;;;;;;;3.38;1.00;;;5.30;74.50;;;;;;5034926;28;20057;-72
2023/04/03 03:04:52;;;;;;;6.20;1.73;;;5.20;74.70;;;;;;5034913;28;20045;-72
2023/04/03 03:07:19;;;;;;;6.00;1.55;;;5.20;74.30;;;;;;5017170;28;20168;-70
2023/04/03 03:09:46;;;;;;;3.15;1.17;;;5.20;74.40;;;;;;5015128;28;20549;-71
2023/04/03 03:12:13;;;;;;;3.63;1.13;;;5.20;74.20;;;;;;5029343;28;20102;-70
2023/04/03 03:14:40;;;;;;;5.80;1.30;;;5.10;73.90;;;;;;5025889;28;20087;-70
2023/04/03 03:17:08;;;;;;;2.95;1.10;;;5.20;73.90;;;;;;5022751;28;20053;-71
2023/04/03 03:19:35;;;;;;;6.43;1.50;;;5.10;73.90;;;;;;5014695;28;20061;-70
2023/04/03 03:22:02;;;;;;;4.45;1.58;;;5.00;73.70;;;;;;5033500;28;20041;-72
2023/04/03 03:24:29;;;;;;;6.60;1.40;;;5.00;74.40;;;;;;5025649;28;20480;-71
2023/04/03 03:26:56;;;;;;;4.00;1.20;;;5.00;74.00;;;;;;5026719;28;20060;-72
2023/04/03 03:29:23;;;;;;;4.32;1.20;;;5.00;73.60;;;;;;5007111;28;20068;-72
2023/04/03 03:31:50;;;;;;;4.68;1.23;;;4.90;73.90;;;;;;5027152;28;20132;-71
2023/04/03 03:34:19;;;;;;;6.00;1.40;;;4.90;74.00;;;;;;5017165;28;20106;-69
2023/04/03 03:36:45;;;;;;;4.57;1.20;;;4.90;74.30;;;;;;5015263;28;20079;-70
2023/04/03 03:39:14;;;;;;;3.53;1.10;;;4.80;74.40;;;;;;5029715;28;20124;-69
2023/04/03 03:41:41;;;;;;;6.35;1.38;;;4.80;74.00;;;;;;5009597;28;20049;-70
2023/04/03 03:44:08;;;;;;;3.70;1.35;;;4.70;74.00;;;;;;5018251;28;20056;-70
2023/04/03 03:46:35;;;;;;;5.25;1.38;;;4.60;74.50;;;;;;5031068;28;20404;-73
2023/04/03 03:49:02;;;;;;;1.42;0.73;;;4.60;74.90;;;;;;5032925;28;20060;-69
2023/04/03 03:51:31;;;;;;;5.43;1.20;;;4.60;74.80;;;;;;5014723;28;20094;-72
2023/04/03 03:53:58;;;;;;;4.80;1.20;;;4.50;74.70;;;;;;5032143;28;20053;-70
2023/04/03 03:56:26;;;;;;;5.47;1.20;;;4.50;75.00;;;;;;5034341;28;20042;-70
2023/04/03 03:58:55;;;;;;;4.53;1.33;;;4.40;74.90;;;;;;5024957;28;20121;-71
2023/04/03 04:01:23;;;;;;;6.45;1.33;;;4.40;74.80;;;;;;5012076;28;20048;-70
2023/04/03 04:03:50;;;;;;;6.43;1.30;;;4.40;75.20;;;;;;5014987;28;20049;-71
2023/04/03 04:06:21;;;;;;;2.92;1.10;;;4.40;75.10;;;;;;5016945;28;20099;-71
2023/04/03 04:08:50;;;;;;;6.25;1.60;;;4.40;75.20;;;;;;5034913;28;20048;-70
2023/04/03 04:11:17;;;;;;;4.25;1.27;;;4.30;75.00;;;;;;5035274;28;20055;-72
2023/04/03 04:13:46;;;;;;;3.95;1.15;;;4.30;75.10;;;;;;5020702;28;20045;-71
2023/04/03 04:16:14;;;;;;;3.40;1.30;;;4.30;75.20;;;;;;5013092;28;20046;-71
2023/04/03 04:18:41;;;;;;;5.82;1.45;;;4.20;75.40;;;;;;5029030;28;20142;-72
2023/04/03 04:21:08;;;;;;;4.78;1.50;;;4.20;75.60;;;;;;5019880;28;20049;-72
2023/04/03 04:23:35;;;;;;;5.57;1.40;;;4.20;75.60;;;;;;5009493;28;20061;-71
2023/04/03 04:26:03;;;;;;;3.90;1.30;;;4.20;75.60;;;;;;5033167;28;20049;-70
2023/04/03 04:28:34;;;;;;;5.05;1.02;;;4.20;76.00;;;;;;5010841;28;20056;-71
2023/04/03 04:31:03;;;;;;;3.63;1.20;;;4.20;75.90;;;;;;5012273;28;20056;-70
2023/04/03 04:33:31;;;;;;;6.28;1.30;;;4.20;76.00;;;;;;5013517;28;20683;-70
2023/04/03 04:36:00;;;;;;;5.88;1.77;;;4.10;75.90;;;;;;5029089;28;20048;-71
2023/04/03 04:38:27;;;;;;;3.25;1.15;;;4.00;76.20;;;;;;5014188;28;20052;-70
2023/04/03 04:40:55;;;;;;;6.15;1.48;;;4.00;76.70;;;;;;5014395;28;20515;-69
2023/04/03 04:43:24;;;;;;;7.20;1.60;;;4.00;76.50;;;;;;5013521;28;20071;-71
2023/04/03 04:46:02;;;;;;;4.65;1.75;;;4.00;76.40;;;;;;5030218;28;20044;-72
2023/04/03 04:48:30;;;;;;;5.32;1.58;;;4.00;76.40;;;;;;5014904;28;20044;-72
2023/04/03 04:50:57;;;;;;;6.45;2.00;;;4.00;76.70;;;;;;5018532;28;20488;-71
2023/04/03 04:53:24;;;;;;;4.97;1.48;;;3.90;76.80;;;;;;5016815;28;20077;-71
2023/04/03 04:55:51;;;;;;;6.40;1.48;;;3.90;76.90;;;;;;5022062;28;20057;-69
2023/04/03 04:58:18;;;;;;;5.70;1.30;;;3.80;77.10;;;;;;5014680;28;20063;-70
2023/04/03 05:00:47;;;;;;;3.55;1.40;;;3.80;77.40;;;;;;5035674;28;20054;-73
2023/04/03 05:03:14;;;;;;;7.60;1.70;;;3.80;77.10;;;;;;5037025;28;20057;-72
2023/04/03 05:05:41;;;;;;;6.20;1.90;;;3.80;76.90;;;;;;5018151;28;20132;-72
2023/04/03 05:08:08;;;;;;;7.05;1.83;;;3.80;77.40;;;;;;5019745;28;20079;-69
2023/04/03 05:10:36;;;;;;;7.68;1.83;;;3.70;77.20;;;;;;5034925;28;20060;-71
2023/04/03 05:13:03;;;;;;;5.18;1.50;;;3.80;77.40;;;;;;5015196;28;20167;-71
2023/04/03 05:15:30;;;;;;;4.95;1.58;;;3.70;77.20;;;;;;5009933;28;20033;-71
2023/04/03 05:17:58;;;;;;;4.63;1.60;;;3.70;77.50;;;;;;5011305;28;20049;-71
2023/04/03 05:20:25;;;;;;;6.22;1.95;;;3.70;77.50;;;;;;5034494;28;20052;-72
2023/04/03 05:22:52;;;;;;;3.92;1.83;;;3.70;77.50;;;;;;5030436;28;20476;-71
2023/04/03 05:25:19;;;;;;;4.40;1.65;;;3.70;77.50;;;;;;5011006;28;20077;-70
2023/04/03 05:27:46;;;;;;;4.30;1.38;;;3.70;77.70;;;;;;5031894;28;20194;-71
2023/04/03 05:30:14;;;;;;;8.10;1.85;;;3.60;77.60;;;;;;5015695;28;20539;-71
2023/04/03 05:32:42;;;;;;;4.68;1.67;;;3.60;77.80;;;;;;5030844;28;20055;-71
2023/04/03 05:35:33;;;;;;;5.40;1.75;;;3.60;77.90;;;;;;5028969;28;20114;-70
2023/04/03 05:38:03;;;;;;;4.82;1.38;;;3.70;77.90;;;;;;5012966;28;20033;-70
2023/04/03 05:40:32;;;;;;;4.72;1.33;;;3.70;77.80;;;;;;5013356;28;20122;-72
2023/04/03 05:42:59;;;;;;;4.22;1.40;;;3.70;77.80;;;;;;5030798;28;20044;-71
2023/04/03 05:45:28;;;;;;;6.33;2.30;;;3.70;78.00;;;;;;5028328;28;20880;-71
2023/04/03 05:47:57;;;;;;;4.63;1.75;;;3.70;78.10;;;;;;5011024;28;20408;-71
2023/04/03 05:50:24;;;;;;;5.55;1.73;;;3.70;78.20;;;;;;5015669;28;20126;-71
2023/04/03 05:52:58;;;;;;;4.60;1.27;;;3.70;78.00;;;;;;5023950;28;20060;-71
2023/04/03 05:55:27;;;;;;;4.32;1.70;;;3.70;77.80;;;;;;5013569;28;20137;-70
2023/04/03 05:57:54;;;;;;;4.75;1.63;;;3.70;77.70;;;;;;5015714;28;20061;-71
2023/04/03 06:00:22;;;;;;;4.22;1.70;;;3.70;77.70;;;;;;5029850;28;20045;-72
2023/04/03 06:02:58;;;;;;;5.65;1.65;;;3.70;77.70;;;;;;5016181;28;20053;-70
2023/04/03 06:05:26;;;;;;;4.78;1.80;;;3.70;77.70;;;;;;5027649;28;20318;-72
2023/04/03 06:07:54;;;;;;;5.93;1.83;;;3.70;77.60;;;;;;5016868;28;20046;-73
2023/04/03 06:10:21;;;;;;;6.63;1.85;;;3.70;77.20;;;;;;5028126;28;20048;-72
2023/04/03 06:12:48;;;;;;;7.22;2.25;;;3.80;77.10;;;;;;4997333;28;20053;-70
2023/04/03 06:15:16;;;;;;;5.05;1.88;;;3.80;77.30;;;;;;5015902;28;20055;-70
2023/04/03 06:17:44;;;;;;;7.25;1.85;;;3.80;76.90;;;;;;5028409;28;20072;-69
2023/04/03 06:20:12;;;;;;;6.32;2.17;;;3.90;76.60;;;;;;5011914;28;20049;-70
2023/04/03 06:22:40;;;;;;;7.28;1.92;;;3.90;76.60;;;;;;5013100;28;20048;-71
2023/04/03 06:25:10;;;;;;;6.10;1.50;;;3.90;76.80;;;;;;5030044;28;20049;-71
2023/04/03 06:27:37;;;;;;;6.38;2.10;;;4.10;76.50;;;;;;5031793;28;20130;-70
2023/04/03 06:30:04;;;;;;;6.75;1.92;;;4.20;76.10;;;;;;5031976;28;20064;-70
2023/04/03 06:32:31;;;;;;;5.03;1.58;;;4.20;75.90;;;;;;5014360;28;20053;-71
2023/04/03 06:34:58;;;;;;;4.07;1.65;;;4.20;75.70;;;;;;5031089;28;21693;-71
2023/04/03 06:37:27;;;;;;;5.28;1.50;;;4.30;75.60;;;;;;5026889;28;20053;-72
2023/04/03 06:39:55;;;;;;;5.43;1.90;;;4.30;75.30;;;;;;5030468;28;20713;-71
2023/04/03 06:42:23;;;;;;;5.05;1.73;;;4.40;75.10;;;;;;5028342;28;20047;-71
2023/04/03 06:45:00;;;;;;;5.68;1.98;;;4.50;75.00;;;;;;5008198;28;20050;-73
2023/04/03 06:47:27;;;;;;;3.90;1.92;;;4.50;74.70;;;;;;5030652;28;20053;-71
2023/04/03 06:49:54;;;;;;;3.97;1.63;;;4.50;74.20;;;;;;5025459;28;20033;-72
2023/04/03 06:52:20;;;;;;;7.82;1.92;;;4.50;74.00;;;;;;5034835;28;20080;-71
2023/04/03 06:54:48;;;;;;;6.60;1.95;;;4.50;73.50;;;;;;5029742;28;21936;-70
2023/04/03 06:57:15;;;;;;;4.18;1.63;;;4.50;73.70;;;;;;5013865;28;20408;-73
2023/04/03 06:59:44;;;;;;;5.28;1.60;;;4.60;73.70;;;;;;5031762;28;20183;-71
2023/04/03 07:02:12;;;;;;;5.03;1.80;;;4.60;73.80;;;;;;5034797;28;20071;-72
2023/04/03 07:04:39;;;;;;;4.50;1.45;;;4.70;73.40;;;;;;5030008;28;20124;-69
2023/04/03 07:07:07;;;;;;;3.58;1.42;;;4.70;73.10;;;;;;5026207;28;20072;-69
2023/04/03 07:09:34;;;;;;;5.13;1.90;;;4.60;73.00;;;;;;5031243;28;20041;-71
2023/04/03 07:12:01;;;;;;;5.18;1.52;;;4.60;73.00;;;;;;5031584;28;20049;-70
2023/04/03 07:14:28;;;;;;;5.40;1.85;;;4.60;72.90;;;;;;5031486;28;20061;-69
2023/04/03 07:16:57;;;;;;;3.85;1.40;;;4.60;72.10;;;;;;5026507;28;20107;-70
2023/04/03 07:19:27;;;;;;;5.50;1.60;;;4.60;72.80;;;;;;5030409;28;20045;-71
2023/04/03 07:21:54;;;;;;;;;;;4.60;72.60;;;;;;5030348;28;20576;-69
2023/04/03 07:24:21;;;;;;;4.45;1.60;;;4.60;72.50;;;;;;5031831;28;19999;-71
2023/04/03 07:26:50;;;;;;;4.13;1.63;;;4.60;72.30;;;;;;5034112;28;20052;-70
2023/04/03 07:29:18;;;;;;;3.60;1.42;;;4.60;72.40;;;;;;5032167;28;20071;-70
2023/04/03 07:31:45;;;;;;;3.67;1.40;;;4.70;71.90;;;;;;5029148;28;20255;-70
2023/04/03 07:34:14;;;;;;;4.57;1.60;;;4.80;71.70;;;;;;5031493;28;20057;-70
2023/04/03 07:36:41;;;;;;;6.10;1.92;;;4.90;71.30;;;;;;5029710;28;20136;-71
2023/04/03 07:39:08;;;;;;;4.90;1.58;;;5.00;70.80;;;;;;5026121;28;20170;-72
2023/04/03 07:41:35;;;;;;;6.72;1.73;;;5.00;70.30;;;;;;5029630;28;20044;-70
2023/04/03 07:44:02;;;;;;;5.05;1.95;;;5.20;69.90;;;;;;5033010;28;20062;-72
2023/04/03 07:46:29;;;;;;;4.53;1.83;;;5.30;69.60;;;;;;5031516;28;20136;-72
2023/04/03 07:48:56;;;;;;;6.97;1.85;;;5.40;68.80;;;;;;5028564;28;20045;-72
2023/04/03 07:51:26;;;;;;;5.32;1.50;;;5.50;68.70;;;;;;5027437;28;21148;-70
2023/04/03 07:53:52;;;;;;;3.25;1.52;;;5.70;68.40;;;;;;5027006;28;20579;-71
2023/04/03 07:56:20;;;;;;;4.10;1.50;;;5.80;68.00;;;;;;5013160;28;20701;-70
2023/04/03 07:58:47;;;;;;;5.28;1.60;;;5.90;67.10;;;;;;5012620;28;20092;-71
2023/04/03 08:01:14;;;;;;;5.93;1.75;;;5.90;66.30;;;;;;5032770;28;20050;-65
2023/04/03 08:03:41;;;;;;;3.13;1.23;;;6.10;65.90;;;;;;5028158;28;20060;-62
2023/04/03 08:06:09;;;;;;;4.40;1.80;;;6.30;66.00;;;;;;5028211;28;20042;-67
2023/04/03 08:08:37;;;;;;;5.60;1.83;;;6.40;65.70;;;;;;5028138;28;20049;-64
2023/04/03 08:11:05;;;;;;;4.32;1.65;;;6.40;65.30;;;;;;5006158;28;20140;-61
2023/04/03 08:13:34;;;;;;;4.25;1.50;;;6.50;65.50;;;;;;5030972;28;20076;-61
2023/04/03 08:16:09;;;;;;;5.30;1.30;;;6.50;64.80;;;;;;5029772;28;20488;-61
2023/04/03 08:18:36;;;;;;;3.95;1.48;;;6.60;64.20;;;;;;5028892;28;20045;-62
2023/04/03 08:21:07;;;;;;;6.90;1.60;;;6.70;64.30;;;;;;5028662;28;20058;-61
2023/04/03 08:23:34;;;;;;;4.32;1.45;;;6.70;63.30;;;;;;5031054;28;20105;-62
2023/04/03 08:26:07;;;;;;;6.45;1.67;;;6.70;63.40;;;;;;5034599;28;20113;-62
2023/04/03 08:28:34;;;;;;;4.85;1.73;;;6.90;63.60;;;;;;5035058;28;20107;-62
2023/04/03 08:31:05;;;;;;;5.93;1.75;;;7.00;63.30;;;;;;5033280;28;20053;-61
2023/04/03 08:33:32;;;;;;;5.68;1.67;;;7.00;62.80;;;;;;5030057;28;20484;-62
2023/04/03 08:35:59;;;;;;;4.95;1.40;;;7.00;62.10;;;;;;5031831;28;20056;-62
2023/04/03 08:38:26;;;;;;;4.65;1.27;;;7.00;61.50;;;;;;5029171;28;20118;-62
2023/04/03 08:41:11;;;;;;;6.00;1.67;;;7.10;61.70;;;;;;5032996;28;20404;-62
2023/04/03 08:43:49;;;;;;;4.68;1.55;;;7.20;61.00;;;;;;5034141;28;20045;-62
2023/04/03 08:46:20;;;;;;;4.32;1.50;;;7.30;61.10;;;;;;5033528;28;20065;-61
2023/04/03 08:48:48;;;;;;;5.53;1.70;;;7.40;61.10;;;;;;5030507;28;20049;-62
2023/04/03 08:51:17;;;;;;;4.53;1.83;;;7.40;60.40;;;;;;5033406;28;20048;-61
2023/04/03 08:53:52;;;;;;;3.80;1.70;;;7.40;60.30;;;;;;5032341;28;20037;-61
2023/04/03 08:56:22;;;;;;;5.68;1.63;;;7.40;59.80;;;;;;5030099;28;20064;-62
2023/04/03 08:58:52;;;;;;;;;;;7.40;59.40;;;;;;5033833;28;20049;-61
2023/04/03 09:01:25;;;;;;;3.92;1.40;;;7.60;59.70;;;;;;5031150;28;19925;-61
2023/04/03 09:03:52;;;;;;;4.97;1.70;;;7.70;59.70;;;;;;5031197;28;20108;-60
2023/04/03 09:06:22;;;;;;;4.18;1.60;;;7.90;59.10;;;;;;5031655;28;20060;-63
2023/04/03 09:09:08;;;;;;;6.35;1.52;;;8.00;58.90;;;;;;5032618;28;20041;-62
2023/04/03 09:11:47;;;;;;;5.50;1.65;;;7.90;58.20;;;;;;5037617;28;20049;-62
2023/04/03 09:14:22;;;;;;;4.28;1.70;;;8.00;57.50;;;;;;5033456;28;20127;-62
2023/04/03 09:16:55;;;;;;;5.95;1.75;;;8.10;57.30;;;;;;5032415;28;20050;-62
2023/04/03 09:19:33;;;;;;;4.25;1.58;;;8.20;57.20;;;;;;5031414;28;20051;-61
2023/04/03 09:22:03;;;;;;;3.13;1.30;;;8.20;56.70;;;;;;5033249;28;20433;-62
2023/04/03 09:24:32;;;;;;;3.27;1.50;;;8.30;56.60;;;;;;5030963;28;20110;-61
2023/04/03 09:27:05;;;;;;;4.18;1.75;;;8.40;55.20;;;;;;5033074;28;20126;-63
2023/04/03 09:29:42;;;;;;;6.20;1.50;;;8.40;55.20;;;;;;5033746;28;20054;-62
2023/04/03 09:32:21;;;;;;;4.00;1.40;;;8.40;54.50;;;;;;5029877;28;20056;-63
2023/04/03 09:34:50;;;;;;;4.78;1.60;;;8.10;54.60;;;;;;5031824;28;20040;-61
2023/04/03 09:37:36;;;;;;;3.65;1.58;;;8.00;55.00;;;;;;5032366;28;20053;-61
2023/04/03 09:40:05;;;;;;;3.28;1.60;;;8.20;56.00;;;;;;5026132;28;20051;-62
2023/04/03 09:42:34;;;;;;;4.75;1.90;;;8.30;54.90;;;;;;5028258;28;20073;-63
2023/04/03 09:45:03;;;;;;;5.10;1.58;;;8.40;54.20;;;;;;5033933;28;20560;-62
2023/04/03 09:47:33;;;;;;;4.53;1.30;;;8.60;54.20;;;;;;5028520;28;20058;-62
2023/04/03 09:50:20;;;;;;;5.53;1.70;;;8.60;54.60;;;;;;5031768;28;20689;-62
2023/04/03 09:52:49;;;;;;;2.42;1.10;;;8.70;53.00;;;;;;5030039;28;20103;-62
2023/04/03 09:55:18;;;;;;;3.40;1.50;;;8.70;52.60;;;;;;5035684;28;20411;-63
2023/04/03 09:57:48;;;;;;;4.80;1.50;;;8.90;52.00;;;;;;5027888;28;20053;-62
2023/04/03 10:00:21;;;;;;;;;;;9.00;51.60;;;;;;5034630;28;20123;-62
2023/04/03 10:02:51;;;;;;;3.05;1.40;;;9.20;52.90;;;;;;5028764;28;20406;-62
2023/04/03 10:05:31;;;;;;;2.85;1.40;;;9.10;51.90;;;;;;5029605;28;20111;-62
2023/04/03 10:08:10;;;;;;;3.50;1.40;;;9.10;50.90;;;;;;5031093;28;20049;-62
2023/04/03 10:10:38;;;;;;;2.55;1.25;;;9.00;50.90;;;;;;5014518;28;20404;-61
2023/04/03 10:13:11;;;;;;;3.53;1.23;;;8.90;50.00;;;;;;5030611;28;20435;-63
2023/04/03 10:15:43;;;;;;;2.38;1.20;;;8.80;50.90;;;;;;5027319;28;20045;-60
2023/04/03 10:18:28;;;;;;;4.88;1.20;;;8.60;49.80;;;;;;5033969;28;20053;-61
2023/04/03 10:21:01;;;;;;;4.40;1.20;;;8.80;49.70;;;;;;5026084;28;20072;-62
2023/04/03 10:23:33;;;;;;;2.83;1.20;;;9.00;49.10;;;;;;5032445;28;20462;-62
2023/04/03 10:26:11;;;;;;;2.45;1.17;;;9.20;49.10;;;;;;5030482;28;20059;-62
2023/04/03 10:28:46;;;;;;;2.70;1.10;;;9.40;49.60;;;;;;5028953;28;20057;-63
2023/04/03 10:31:18;;;;;;;3.47;1.13;;;9.60;49.50;;;;;;5032018;28;20504;-62
2023/04/03 10:34:02;;;;;;;3.40;1.33;;;9.60;49.90;;;;;;5027838;28;20061;-62
2023/04/03 10:36:39;;;;;;;3.97;1.20;;;9.50;49.30;;;;;;5029891;28;20102;-62
2023/04/03 10:39:19;;;;;;;4.25;1.23;;;9.50;48.40;;;;;;5030928;28;20050;-61
2023/04/03 10:42:00;;;;;;;3.38;1.20;;;9.60;49.30;;;;;;5032245;28;20046;-61
2023/04/03 10:44:37;;;;;;;3.83;1.20;;;9.80;49.00;;;;;;5031121;28;20095;-62
2023/04/03 10:47:14;;;;;;;3.50;1.27;;;9.90;47.70;;;;;;5031871;28;20118;-61
2023/04/03 10:49:52;;;;;;;3.38;1.13;;;9.90;45.70;;;;;;5030528;28;20091;-61
2023/04/03 10:52:24;;;;;;;3.38;1.15;;;9.90;45.60;;;;;;5033804;28;20052;-63
2023/04/03 10:55:00;;;;;;;2.38;1.10;;;9.90;46.60;;;;;;5030525;28;20056;-63
2023/04/03 10:57:28;;;;;;;4.68;1.42;;;10.10;45.90;;;;;;5028821;28;20044;-62
2023/04/03 11:00:01;;;;;;;4.03;1.30;;;10.10;45.80;;;;;;5031780;28;20049;-62
2023/04/03 11:02:32;;;;;;;1.85;1.00;;;10.20;44.90;;;;;;5014916;28;20057;-62
2023/04/03 11:05:03;;;;;;;3.20;1.30;;;10.20;44.50;;;;;;5010148;28;20050;-62
2023/04/03 11:07:34;;;;;;;3.60;1.27;;;10.20;46.10;;;;;;5012149;28;20048;-62
2023/04/03 11:10:04;;;;;;;5.53;1.33;;;10.30;44.90;;;;;;5015704;28;20045;-62
2023/04/03 11:12:39;;;;;;;3.28;1.00;;;10.20;44.70;;;;;;5012011;28;20056;-62
2023/04/03 11:15:13;;;;;;;3.55;1.35;;;10.20;43.80;;;;;;5003842;28;20109;-63
2023/04/03 11:17:47;;;;;;;4.30;1.77;;;10.20;44.80;;;;;;5009826;28;20051;-63
2023/04/03 11:20:19;;;;;;;4.47;1.15;;;10.20;45.00;;;;;;5006349;28;20049;-61
2023/04/03 11:22:51;;;;;;;5.43;1.40;;;10.40;45.60;;;;;;5013412;28;20416;-61
2023/04/03 11:25:22;;;;;;;3.40;1.20;;;10.40;45.40;;;;;;5013695;28;20528;-62
2023/04/03 11:27:55;;;;;;;3.53;0.93;;;10.40;44.70;;;;;;5007973;28;20054;-62
2023/04/03 11:30:29;;;;;;;1.67;0.88;;;10.40;43.60;;;;;;5005129;28;20052;-62
2023/04/03 11:33:22;;;;;;;2.38;1.00;;;10.50;44.50;;;;;;5010132;28;20061;-61
2023/04/03 11:35:52;;;;;;;2.83;1.17;;;10.50;43.50;;;;;;5003995;28;20046;-61
2023/04/03 11:38:22;;;;;;;;;;;10.60;44.30;;;;;;5011309;28;20050;-61
2023/04/03 11:40:51;;;;;;;4.20;1.10;;;10.60;44.50;;;;;;5012765;28;19994;-61
2023/04/03 11:43:26;;;;;;;3.03;1.10;;;10.60;43.60;;;;;;5011703;28;20049;-64
2023/04/03 11:46:00;;;;;;;3.75;1.30;;;10.50;42.60;;;;;;5006895;28;20511;-61
2023/04/03 11:48:49;;;;;;;4.07;1.55;;;10.50;43.40;;;;;;5010579;28;20057;-62
2023/04/03 11:51:44;;;;;;;3.40;1.50;;;10.50;42.00;;;;;;5013419;28;20049;-62
2023/04/03 11:54:58;;;;;;;4.10;1.70;;;10.40;42.80;;;;;;5012106;28;20124;-62
2023/04/03 11:57:45;;;;;;;5.40;1.55;;;10.40;43.80;;;;;;5013155;28;20073;-62
2023/04/03 12:00:49;;;;;;;4.45;1.73;;;10.60;44.60;;;;;;5012598;28;20168;-62
2023/04/03 12:03:58;;;;;;;6.10;1.65;;;10.60;44.60;;;;;;5017593;28;20061;-62
2023/04/03 12:07:16;;;;;;;5.00;1.85;;;10.50;43.50;;;;;;4987452;28;20128;-62
2023/04/03 12:10:17;;;;;;;5.93;2.35;;;10.50;44.10;;;;;;5011689;28;20131;-62
2023/04/03 12:12:58;;;;;;;7.55;2.10;;;10.50;43.40;;;;;;5013239;28;20046;-62
2023/04/03 12:15:54;;;;;;;5.60;2.03;;;10.40;42.60;;;;;;5012860;28;20433;-62
2023/04/03 12:19:04;;;;;;;6.47;2.25;;;10.40;42.20;;;;;;5014782;28;20050;-62
2023/04/03 12:22:13;;;;;;;6.97;2.50;;;10.30;42.30;;;;;;4969209;28;20062;-63
2023/04/03 12:24:40;;;;;;;4.53;2.42;;;10.20;42.80;;;;;;5005982;28;20513;-60
2023/04/03 12:27:25;;;;;;;5.07;2.20;;;10.30;44.00;;;;;;5014587;28;20057;-62
2023/04/03 12:29:58;;;;;;;6.32;2.30;;;10.30;44.00;;;;;;5013277;28;20049;-63
2023/04/03 12:32:37;;;;;;;6.75;2.40;;;10.30;44.60;;;;;;5014315;28;20050;-62
2023/04/03 12:35:14;;;;;;;4.80;2.10;;;10.30;44.40;;;;;;5008923;28;20101;-60
2023/04/03 12:37:55;;;;;;;4.68;2.30;;;10.30;44.20;;;;;;5016618;28;20108;-63
2023/04/03 12:40:28;;;;;;;3.08;1.60;;;10.20;42.60;;;;;;5009651;28;20041;-60
2023/04/03 12:43:24;;;;;;;5.50;1.70;;;10.00;42.90;;;;;;5014925;28;20045;-62
2023/04/03 12:45:58;;;;;;;4.53;1.58;;;10.00;43.60;;;;;;5004382;28;20099;-61
2023/04/03 12:48:27;;;;;;;4.18;1.73;;;10.10;43.90;;;;;;5008170;28;20060;-61
2023/04/03 12:50:58;;;;;;;4.30;1.80;;;10.00;43.50;;;;;;5012692;28;20140;-61
2023/04/03 12:53:26;;;;;;;;;;;10.00;43.90;;;;;;5014841;28;20040;-62
2023/04/03 12:55:55;;;;;;;3.75;1.70;;;10.00;43.90;;;;;;5011109;28;20011;-62
2023/04/03 12:58:24;;;;;;;4.55;1.80;;;10.00;43.90;;;;;;5012033;28;20061;-62
2023/04/03 13:01:02;;;;;;;4.38;1.25;;;10.10;44.90;;;;;;5009745;28;20046;-62
2023/04/03 13:03:29;;;;;;;2.30;0.77;;;9.90;44.70;;;;;;5014228;28;20070;-62
2023/04/03 13:06:01;;;;;;;3.10;1.00;;;9.90;43.70;;;;;;5015799;28;20061;-62
2023/04/03 13:08:29;;;;;;;4.82;1.15;;;9.80;44.10;;;;;;5011278;28;20064;-61
2023/04/03 13:11:00;;;;;;;1.85;0.80;;;9.80;44.30;;;;;;5010142;28;20500;-61
2023/04/03 13:13:27;;;;;;;3.85;0.95;;;9.80;44.60;;;;;;5013691;28;20050;-62
2023/04/03 13:15:55;;;;;;;2.53;0.90;;;9.70;45.00;;;;;;5013301;28;20398;-64
2023/04/03 13:18:26;;;;;;;1.65;0.63;;;9.70;45.10;;;;;;5010505;28;20057;-63